createdAt,value
2022-09-21T00:16:17.052Z,8.95
2022-09-21T00:19:41.877Z,9.23
2022-09-21T00:28:58.901Z,9.32
2022-09-21T01:01:29.446Z,9.45
2022-09-21T01:09:06.639Z,9.69
2022-09-21T02:04:45.117Z,9.84
2022-09-21T02:06:59.011Z,9.83
2022-09-21T02:09:10.517Z,9.68
2022-09-21T02:11:19.720Z,9.63
2022-09-21T02:13:26.476Z,9.63
2022-09-21T02:15:33.963Z,9.62
2022-09-21T02:17:48.418Z,9.6
2022-09-21T02:20:00.260Z,9.6
2022-09-21T02:22:11.198Z,9.59
2022-09-21T02:24:27.679Z,9.56
2022-09-21T02:26:49.539Z,9.51
2022-09-21T02:28:56.053Z,9.53
2022-09-21T02:31:13.857Z,9.52
2022-09-21T02:33:27.103Z,9.5
2022-09-21T02:35:38.287Z,9.52
2022-09-21T02:37:58.101Z,9.53
2022-09-21T02:40:04.905Z,9.52
2022-09-21T02:42:18.237Z,9.54
2022-09-21T02:44:44.021Z,9.51
2022-09-21T02:46:51.918Z,9.51
2022-09-21T02:49:03.814Z,9.53
2022-09-21T02:51:25.123Z,9.52
2022-09-21T02:53:36.620Z,9.53
2022-09-21T02:55:48.195Z,9.51
2022-09-21T02:58:02.678Z,9.51
2022-09-21T03:00:10.298Z,9.49
2022-09-21T03:02:16.275Z,9.51
2022-09-21T03:04:27.676Z,9.5
2022-09-21T03:06:36.578Z,9.52
2022-09-21T03:08:43.362Z,9.49
2022-09-21T03:10:49.477Z,9.47
2022-09-21T03:12:58.434Z,9.5
2022-09-21T03:15:10.703Z,9.5
2022-09-21T03:17:21.655Z,9.52
2022-09-21T03:19:51.009Z,9.52
2022-09-21T03:21:58.075Z,9.51
2022-09-21T03:24:08.926Z,9.52
2022-09-21T03:26:18.128Z,9.53
2022-09-21T03:28:24.143Z,9.54
2022-09-21T03:30:36.135Z,9.5
2022-09-21T03:32:43.015Z,9.48
2022-09-21T03:34:55.236Z,9.47
2022-09-21T03:37:10.326Z,9.46
2022-09-21T03:39:17.264Z,9.49
2022-09-21T03:41:37.440Z,9.47
2022-09-21T03:43:46.897Z,9.46
2022-09-21T03:46:00.884Z,9.45
2022-09-21T03:48:08.055Z,9.44
2022-09-21T03:50:22.107Z,9.46
2022-09-21T03:52:40.570Z,9.48
2022-09-21T03:54:50.510Z,9.45
2022-09-21T03:57:14.596Z,9.45
2022-09-21T03:59:21.488Z,9.48
2022-09-21T04:01:42.150Z,9.43
2022-09-21T04:04:02.578Z,9.46
2022-09-21T04:06:14.157Z,9.5
2022-09-21T04:08:33.108Z,9.48
2022-09-21T04:10:41.385Z,9.52
2022-09-21T04:12:51.037Z,9.49
2022-09-21T04:15:00.901Z,9.51
2022-09-21T04:17:11.673Z,9.52
2022-09-21T04:19:22.756Z,9.51
2022-09-21T04:21:29.834Z,9.52
2022-09-21T04:23:36.123Z,9.51
2022-09-21T04:25:47.270Z,9.5
2022-09-21T04:28:02.820Z,9.53
2022-09-21T04:30:16.795Z,9.5
2022-09-21T04:32:26.330Z,9.51
2022-09-21T04:34:41.585Z,9.53
2022-09-21T04:36:53.816Z,9.56
2022-09-21T04:39:05.867Z,9.57
2022-09-21T04:41:18.816Z,9.59
2022-09-21T04:43:25.546Z,9.58
2022-09-21T04:45:36.797Z,9.57
2022-09-21T04:47:43.993Z,9.62
2022-09-21T04:49:51.065Z,9.64
2022-09-21T04:52:01.717Z,9.66
2022-09-21T04:54:11.948Z,9.69
2022-09-21T04:56:19.184Z,9.69
2022-09-21T04:58:29.044Z,9.66
2022-09-21T05:00:49.622Z,9.7
2022-09-21T05:02:55.890Z,9.74
2022-09-21T05:05:05.562Z,9.76
2022-09-21T05:07:15.947Z,9.78
2022-09-21T05:09:22.468Z,9.78
2022-09-21T05:11:29.404Z,9.79
2022-09-21T05:13:47.907Z,9.85
2022-09-21T05:16:06.260Z,9.89
2022-09-21T05:18:13.649Z,9.86
2022-09-21T05:20:27.349Z,9.85
2022-09-21T05:22:40.156Z,9.84
2022-09-21T05:24:50.447Z,9.86
2022-09-21T05:26:57.523Z,9.87
2022-09-21T05:29:05.362Z,9.89
2022-09-21T05:31:17.874Z,9.89
2022-09-21T05:33:34.279Z,9.95
2022-09-21T05:35:46.005Z,9.99
2022-09-21T05:37:52.648Z,10.03
2022-09-21T05:40:02.531Z,10.07
2022-09-21T05:42:16.741Z,10.13
2022-09-21T05:44:27.977Z,10.18
2022-09-21T05:46:35.115Z,10.15
2022-09-21T05:48:44.243Z,10.18
2022-09-21T05:50:51.334Z,10.25
2022-09-21T05:53:02.151Z,10.2
2022-09-21T05:55:10.805Z,10.21
2022-09-21T05:57:17.646Z,10.27
2022-09-21T05:59:26.104Z,10.22
2022-09-21T06:01:33.308Z,10.24
2022-09-21T06:03:40.343Z,10.3
2022-09-21T06:05:48.303Z,10.34
2022-09-21T06:07:58.039Z,10.33
2022-09-21T06:10:05.219Z,10.43
2022-09-21T06:12:12.051Z,10.5
2022-09-21T06:14:34.150Z,10.45
2022-09-21T06:16:41.454Z,10.51
2022-09-21T06:18:49.015Z,10.53
2022-09-21T06:20:56.051Z,10.64
2022-09-21T06:23:05.049Z,10.74
2022-09-21T06:25:12.131Z,10.91
2022-09-21T06:27:30.562Z,11.04
2022-09-21T06:29:37.298Z,11.23
2022-09-21T06:31:44.093Z,11.44
2022-09-21T06:33:50.843Z,11.38
2022-09-21T06:36:08.608Z,11.41
2022-09-21T06:38:15.348Z,11.37
2022-09-21T06:40:46.768Z,11.43
2022-09-21T06:42:53.627Z,11.58
2022-09-21T06:45:00.638Z,11.56
2022-09-21T06:47:13.375Z,11.44
2022-09-21T06:49:24.065Z,11.37
2022-09-21T06:52:00.631Z,11.36
2022-09-21T07:00:43.463Z,11.4
2022-09-21T07:03:22.560Z,11.21
2022-09-21T07:05:36.960Z,11.27
2022-09-21T07:07:53.471Z,11.35
2022-09-21T07:12:23.727Z,11.52
2022-09-21T07:17:07.918Z,11.64
2022-09-21T07:19:21.922Z,11.55
2022-09-21T07:21:39.714Z,11.51
2022-09-21T07:23:51.961Z,11.63
2022-09-21T07:29:14.309Z,11.65
2022-09-21T07:31:21.683Z,11.87
2022-09-21T07:33:30.707Z,11.9
2022-09-21T07:35:41.141Z,11.9
2022-09-21T07:37:47.606Z,11.99
2022-09-21T07:39:54.268Z,12.08
2022-09-21T07:42:01.473Z,12.15
2022-09-21T07:44:07.880Z,12.23
2022-09-21T07:46:14.625Z,12.46
2022-09-21T07:48:21.130Z,12.39
2022-09-21T07:50:27.716Z,12.29
2022-09-21T07:52:34.631Z,12.33
2022-09-21T07:54:40.893Z,12.54
2022-09-21T07:56:47.385Z,12.66
2022-09-21T07:58:54.085Z,12.95
2022-09-21T08:01:03.935Z,13.06
2022-09-21T08:03:17.911Z,13.38
2022-09-21T08:05:37.240Z,13.63
2022-09-21T08:07:44.075Z,13.92
2022-09-21T08:09:50.606Z,13.99
2022-09-21T08:11:57.470Z,14.18
2022-09-21T08:14:04.277Z,14.22
2022-09-21T08:16:12.013Z,14.38
2022-09-21T08:18:18.663Z,14.05
2022-09-21T08:20:24.991Z,13.75
2022-09-21T08:22:31.607Z,13.89
2022-09-21T08:24:37.973Z,13.98
2022-09-21T08:26:45.230Z,13.62
2022-09-21T08:28:51.718Z,13.85
2022-09-21T08:30:58.681Z,14
2022-09-21T08:33:05.074Z,14.11
2022-09-21T08:35:11.611Z,14.77
2022-09-21T08:37:18.431Z,15.24
2022-09-21T08:39:25.067Z,15.36
2022-09-21T08:41:34.983Z,14.98
2022-09-21T08:43:46.131Z,14.57
2022-09-21T08:45:52.830Z,14.33
2022-09-21T08:47:59.347Z,13.79
2022-09-21T08:50:05.618Z,13.93
2022-09-21T08:52:15.060Z,14.18
2022-09-21T08:54:22.374Z,14.98
2022-09-21T08:56:41.806Z,15.03
2022-09-21T08:59:10.269Z,14.91
2022-09-21T09:01:17.613Z,14.98
2022-09-21T09:03:24.879Z,14.45
2022-09-21T09:05:31.015Z,14.28
2022-09-21T09:07:37.294Z,14.43
2022-09-21T09:09:43.322Z,14.44
2022-09-21T09:11:49.927Z,15.24
2022-09-21T09:13:56.667Z,15.97
2022-09-21T09:16:02.797Z,16.64
2022-09-21T09:18:09.570Z,17.35
2022-09-21T09:20:15.845Z,17.25
2022-09-21T09:22:22.301Z,16.57
2022-09-21T09:24:28.789Z,15.91
2022-09-21T09:26:35.147Z,15.63
2022-09-21T09:28:41.436Z,14.93
2022-09-21T09:30:50.792Z,14.45
2022-09-21T09:32:57.082Z,14
2022-09-21T09:35:03.498Z,14.34
2022-09-21T09:37:10.107Z,15.46
2022-09-21T09:39:16.497Z,16.05
2022-09-21T09:41:23.045Z,15.83
2022-09-21T09:43:29.379Z,15.46
2022-09-21T09:45:35.776Z,14.86
2022-09-21T09:47:41.516Z,14.16
2022-09-21T09:49:47.634Z,13.75
2022-09-21T09:51:54.065Z,13.71
2022-09-21T09:54:00.750Z,13.88
2022-09-21T09:56:14.211Z,14.86
2022-09-21T09:58:20.458Z,16.7
2022-09-21T10:00:27.484Z,17.25
2022-09-21T10:02:33.513Z,17.02
2022-09-21T10:04:39.483Z,17.07
2022-09-21T10:06:46.893Z,17.59
2022-09-21T10:08:53.086Z,17.74
2022-09-21T10:10:59.486Z,18.17
2022-09-21T10:13:05.633Z,19.18
2022-09-21T10:15:11.543Z,19.05
2022-09-21T10:17:17.664Z,19.37
2022-09-21T10:19:23.809Z,19.59
2022-09-21T10:21:30.043Z,18.36
2022-09-21T10:23:35.787Z,17.42
2022-09-21T10:25:41.935Z,16.69
2022-09-21T10:27:47.530Z,17.97
2022-09-21T10:29:53.130Z,19.35
2022-09-21T10:31:58.775Z,19.91
2022-09-21T10:34:04.674Z,19.46
2022-09-21T10:36:10.841Z,18.23
2022-09-21T10:38:21.281Z,17.14
2022-09-21T10:40:27.993Z,16.66
2022-09-21T10:42:34.731Z,17.6
2022-09-21T10:44:41.075Z,17.85
2022-09-21T10:46:47.648Z,19.26
2022-09-21T10:48:54.692Z,19.26
2022-09-21T10:51:01.012Z,19.26
2022-09-21T10:53:06.777Z,19.19
2022-09-21T10:55:12.794Z,19.91
2022-09-21T10:57:20.459Z,20.81
2022-09-21T10:59:27.152Z,19.73
2022-09-21T11:01:33.355Z,17.78
2022-09-21T11:03:39.660Z,17.21
2022-09-21T11:05:45.447Z,16.73
2022-09-21T11:07:52.771Z,16.65
2022-09-21T11:09:59.225Z,17.12
2022-09-21T11:12:05.423Z,17.14
2022-09-21T11:14:12.712Z,18.17
2022-09-21T11:16:18.472Z,18.59
2022-09-21T11:18:24.707Z,18.99
2022-09-21T11:20:31.029Z,18.8
2022-09-21T11:22:37.293Z,19.07
2022-09-21T11:24:44.373Z,18.48
2022-09-21T11:26:50.683Z,17.58
2022-09-21T11:28:57.059Z,16.08
2022-09-21T11:31:03.487Z,15.53
2022-09-21T11:33:12.877Z,14.74
2022-09-21T11:35:19.269Z,14.58
2022-09-21T11:37:25.541Z,14.68
2022-09-21T11:39:32.154Z,15.2
2022-09-21T11:41:38.466Z,15.69
2022-09-21T11:43:44.313Z,16.64
2022-09-21T11:45:50.885Z,17.86
2022-09-21T11:47:58.407Z,18.18
2022-09-21T11:50:26.256Z,18.8
2022-09-21T11:52:43.031Z,20.14
2022-09-21T11:54:49.389Z,20.17
2022-09-21T11:56:55.217Z,20.01
2022-09-21T11:59:01.292Z,18.93
2022-09-21T12:01:07.676Z,18.82
2022-09-21T12:03:14.372Z,19.2
2022-09-21T12:05:20.599Z,19.7
2022-09-21T12:07:26.500Z,18.7
2022-09-21T12:09:31.906Z,18.71
2022-09-21T12:11:37.972Z,18.7
2022-09-21T12:13:45.704Z,18.5
2022-09-21T12:15:52.421Z,17.85
2022-09-21T12:17:59.075Z,18.56
2022-09-21T12:20:05.513Z,18.13
2022-09-21T12:22:11.751Z,18.18
2022-09-21T12:24:17.435Z,18.09
2022-09-21T12:26:23.295Z,17.65
2022-09-21T12:28:30.291Z,17.35
2022-09-21T12:30:36.398Z,17.78
2022-09-21T12:32:42.973Z,17.06
2022-09-21T12:34:49.324Z,16.61
2022-09-21T12:36:55.622Z,16.62
2022-09-21T12:39:01.190Z,16.57
2022-09-21T12:41:08.211Z,16.35
2022-09-21T12:43:14.463Z,16.04
2022-09-21T12:45:20.657Z,15.91
2022-09-21T12:47:26.173Z,16.18
2022-09-21T12:49:31.326Z,15.93
2022-09-21T12:51:37.297Z,15.95
2022-09-21T12:53:44.499Z,15.92
2022-09-21T12:55:55.926Z,15.94
2022-09-21T12:58:14.924Z,16.11
2022-09-21T13:00:22.353Z,15.85
2022-09-21T13:02:28.949Z,15.66
2022-09-21T13:04:35.889Z,15.5
2022-09-21T13:06:41.885Z,15.42
2022-09-21T13:10:56.198Z,14.93
2022-09-21T13:13:02.343Z,14.85
2022-09-21T13:15:08.367Z,14.94
2022-09-21T13:17:14.714Z,15
2022-09-21T13:19:20.881Z,14.88
2022-09-21T13:21:26.963Z,14.86
2022-09-21T13:23:33.424Z,14.88
2022-09-21T13:25:39.087Z,14.99
2022-09-21T13:27:45.070Z,15.01
2022-09-21T13:29:51.306Z,14.94
2022-09-21T13:31:58.030Z,15.01
2022-09-21T13:34:04.965Z,14.68
2022-09-21T13:36:11.846Z,14.58
2022-09-21T13:38:18.287Z,14.43
2022-09-21T13:40:24.644Z,14.26
2022-09-21T13:42:31.611Z,14.08
2022-09-21T13:44:38.647Z,13.86
2022-09-21T13:46:45.192Z,13.66
2022-09-21T13:48:52.047Z,13.6
2022-09-21T13:50:59.071Z,13.43
2022-09-21T13:53:06.564Z,13.17
2022-09-21T13:55:12.946Z,12.94
2022-09-21T13:57:19.464Z,12.62
2022-09-21T13:59:25.774Z,12.27
2022-09-21T14:01:48.030Z,12.08
2022-09-21T14:03:55.206Z,11.77
2022-09-21T14:06:01.304Z,11.74
2022-09-21T14:08:07.546Z,11.74
2022-09-21T14:10:13.746Z,11.78
2022-09-21T14:12:20.226Z,11.78
2022-09-21T14:14:27.646Z,11.84
2022-09-21T14:16:34.433Z,11.93
2022-09-21T14:18:42.599Z,11.95
2022-09-21T14:20:50.366Z,11.98
2022-09-21T14:22:57.327Z,12.04
2022-09-21T14:25:05.062Z,12.07
2022-09-21T14:27:11.701Z,12.09
2022-09-21T14:29:18.530Z,12.07
2022-09-21T14:31:25.528Z,12.04
2022-09-21T14:33:32.848Z,11.98
2022-09-21T14:35:39.691Z,11.98
2022-09-21T14:37:46.015Z,12.06
2022-09-21T14:39:52.350Z,12.1
2022-09-21T14:41:58.781Z,12.1
2022-09-21T14:44:05.088Z,12.17
2022-09-21T14:46:11.621Z,12.19
2022-09-21T14:48:19.521Z,12.24
2022-09-21T14:50:26.259Z,12.26
2022-09-21T14:52:32.886Z,12.33
2022-09-21T14:54:39.502Z,12.33
2022-09-21T14:56:45.886Z,12.43
2022-09-21T14:58:52.979Z,12.41
2022-09-21T15:00:59.874Z,12.4
2022-09-21T15:03:07.222Z,12.45
2022-09-21T15:05:13.996Z,12.44
2022-09-21T15:07:21.074Z,12.41
2022-09-21T15:09:27.461Z,12.46
2022-09-21T15:11:33.945Z,12.52
2022-09-21T15:13:40.647Z,12.49
2022-09-21T15:15:47.197Z,12.4
2022-09-21T15:17:57.330Z,12.47
2022-09-21T15:20:05.994Z,12.52
2022-09-21T15:22:12.510Z,12.54
2022-09-21T15:24:19.070Z,12.58
2022-09-21T15:26:27.027Z,12.63
2022-09-21T15:28:51.908Z,12.66
2022-09-21T15:31:19.049Z,12.71
2022-09-21T15:33:26.171Z,12.71
2022-09-21T15:35:32.672Z,12.68
2022-09-21T15:37:39.270Z,12.68
2022-09-21T15:39:45.741Z,12.74
2022-09-21T15:41:54.831Z,12.78
2022-09-21T15:44:01.607Z,12.88
2022-09-21T15:46:08.983Z,12.9
2022-09-21T15:48:16.524Z,12.88
2022-09-21T15:50:23.157Z,12.88
2022-09-21T15:52:31.242Z,12.86
2022-09-21T15:54:39.207Z,12.88
2022-09-21T15:56:46.236Z,12.77
2022-09-21T15:58:53.687Z,12.74
2022-09-21T16:01:01.428Z,12.63
2022-09-21T16:03:08.741Z,12.58
2022-09-21T16:05:15.518Z,12.54
2022-09-21T16:07:25.586Z,12.51
2022-09-21T16:09:32.844Z,12.43
2022-09-21T16:11:39.950Z,12.35
2022-09-21T16:13:48.264Z,12.3
2022-09-21T16:15:55.165Z,12.21
2022-09-21T16:18:02.720Z,12.16
2022-09-21T16:20:10.764Z,12.12
2022-09-21T16:22:18.834Z,12.12
2022-09-21T16:24:26.175Z,12.04
2022-09-21T16:26:32.782Z,12.03
2022-09-21T16:28:40.448Z,12.01
2022-09-21T16:30:47.818Z,11.95
2022-09-21T16:32:54.367Z,11.89
2022-09-21T16:35:01.165Z,11.85
2022-09-21T16:37:07.769Z,11.77
2022-09-21T16:39:16.084Z,11.69
2022-09-21T16:41:23.471Z,11.62
2022-09-21T16:43:31.185Z,11.6
2022-09-21T16:45:40.222Z,11.53
2022-09-21T16:47:48.318Z,11.49
2022-09-21T16:49:55.358Z,11.52
2022-09-21T16:52:02.088Z,11.5
2022-09-21T16:54:09.447Z,11.52
2022-09-21T16:56:18.033Z,11.52
2022-09-21T16:58:25.607Z,11.51
2022-09-21T17:00:34.649Z,11.44
2022-09-21T17:02:42.605Z,11.36
2022-09-21T17:04:51.580Z,11.29
2022-09-21T17:06:58.342Z,11.19
2022-09-21T17:09:05.719Z,11.16
2022-09-21T17:11:12.683Z,11.07
2022-09-21T17:13:23.437Z,11.06
2022-09-21T17:15:34.476Z,11
2022-09-21T17:17:42.985Z,10.9
2022-09-21T17:19:50.424Z,10.83
2022-09-21T17:21:58.771Z,10.89
2022-09-21T17:24:08.227Z,10.78
2022-09-21T17:26:52.772Z,10.74
2022-09-21T17:29:00.713Z,10.67
2022-09-21T17:31:08.443Z,10.63
2022-09-21T17:33:15.900Z,10.55
2022-09-21T17:35:22.865Z,10.46
2022-09-21T17:37:30.911Z,10.36
2022-09-21T17:39:37.854Z,10.32
2022-09-21T17:41:47.459Z,10.36
2022-09-21T17:43:54.908Z,10.33
2022-09-21T17:46:02.685Z,10.28
2022-09-21T17:48:10.080Z,10.31
2022-09-21T17:50:18.649Z,10.27
2022-09-21T17:52:28.735Z,10.27
2022-09-21T17:54:35.865Z,10.23
2022-09-21T17:56:45.668Z,10.22
2022-09-21T17:58:52.487Z,10.19
2022-09-21T18:00:59.757Z,10.14
2022-09-21T18:03:07.450Z,10.06
2022-09-21T18:05:16.261Z,10.01
2022-09-21T18:07:26.019Z,9.95
2022-09-21T18:09:34.751Z,9.86
2022-09-21T18:11:42.085Z,9.77
2022-09-21T18:13:52.833Z,9.72
2022-09-21T18:16:00.525Z,9.62
2022-09-21T18:18:08.187Z,9.54
2022-09-21T18:20:18.979Z,9.48
2022-09-21T18:22:31.798Z,9.44
2022-09-21T18:24:42.182Z,9.41
2022-09-21T18:26:52.486Z,9.4
2022-09-21T18:28:59.995Z,9.4
2022-09-21T18:31:44.715Z,9.39
2022-09-21T18:33:51.556Z,9.42
2022-09-21T18:36:00.251Z,9.43
2022-09-21T18:38:07.703Z,9.45
2022-09-21T18:40:19.226Z,9.47
2022-09-21T18:42:27.643Z,9.56
2022-09-21T18:44:40.266Z,9.65
2022-09-21T18:46:48.619Z,9.77
2022-09-21T18:48:57.616Z,9.84
2022-09-21T18:51:04.696Z,9.89
2022-09-21T18:53:15.002Z,9.96
2022-09-21T18:55:23.501Z,9.99
2022-09-21T18:57:32.246Z,10.02
2022-09-21T18:59:41.215Z,10.02
2022-09-21T19:01:49.321Z,10.02
2022-09-21T19:04:02.005Z,10.01
2022-09-21T19:06:09.429Z,9.97
2022-09-21T19:08:19.217Z,9.98
2022-09-21T19:10:25.936Z,9.92
2022-09-21T19:12:35.700Z,9.87
2022-09-21T19:14:43.878Z,9.88
2022-09-21T19:16:56.980Z,9.88
2022-09-21T19:19:05.351Z,9.85
2022-09-21T19:21:15.325Z,9.83
2022-09-21T19:23:25.310Z,9.83
2022-09-21T19:25:32.958Z,9.86
2022-09-21T19:27:39.931Z,9.87
2022-09-21T19:29:48.358Z,9.88
2022-09-21T19:31:55.891Z,9.86
2022-09-21T19:34:04.185Z,9.85
2022-09-21T19:36:12.936Z,9.82
2022-09-21T19:38:20.068Z,9.85
2022-09-21T19:40:28.715Z,9.86
2022-09-21T19:42:37.067Z,9.87
2022-09-21T19:44:44.050Z,9.85
2022-09-21T19:46:52.503Z,9.84
2022-09-21T19:48:58.924Z,9.78
2022-09-21T19:51:06.468Z,9.74
2022-09-21T19:53:14.235Z,9.69
2022-09-21T19:55:22.256Z,9.7
2022-09-21T19:57:30.792Z,9.69
2022-09-21T19:59:39.386Z,9.7
2022-09-21T20:01:47.493Z,9.67
2022-09-21T20:03:56.243Z,9.67
2022-09-21T20:06:04.392Z,9.69
2022-09-21T20:08:11.596Z,9.72
2022-09-21T20:10:19.705Z,9.74
2022-09-21T20:12:27.264Z,9.75
2022-09-21T20:14:33.726Z,9.78
2022-09-21T20:16:39.971Z,9.77
2022-09-21T20:18:46.790Z,9.77
2022-09-21T20:20:54.525Z,9.78
2022-09-21T20:23:01.333Z,9.78
2022-09-21T20:25:08.512Z,9.82
2022-09-21T20:27:16.230Z,9.82
2022-09-21T20:29:23.321Z,9.85
2022-09-21T20:31:29.791Z,9.87
2022-09-21T20:33:35.962Z,9.89
2022-09-21T20:35:43.231Z,9.89
2022-09-21T20:37:49.491Z,9.89
2022-09-21T20:39:59.584Z,9.92
2022-09-21T20:42:06.250Z,9.94
2022-09-21T20:44:13.730Z,9.95
2022-09-21T20:46:20.446Z,9.98
2022-09-21T20:48:27.025Z,9.95
2022-09-21T20:50:33.587Z,9.92
2022-09-21T20:52:39.870Z,9.94
2022-09-21T20:54:49.449Z,9.9
2022-09-21T20:56:56.083Z,9.88
2022-09-21T20:59:03.579Z,9.88
2022-09-21T21:01:10.413Z,9.85
2022-09-21T21:03:17.229Z,9.81
2022-09-21T21:05:25.636Z,9.77
2022-09-21T21:07:32.021Z,9.75
2022-09-21T21:09:38.004Z,9.72
2022-09-21T21:11:44.656Z,9.68
2022-09-21T21:13:52.723Z,9.69
2022-09-21T21:15:59.003Z,9.68
2022-09-21T21:18:09.247Z,9.64
2022-09-21T21:20:15.713Z,9.76
2022-09-21T21:22:21.602Z,9.63
2022-09-21T21:24:27.656Z,9.65
2022-09-21T21:26:57.716Z,9.61
2022-09-21T21:29:08.521Z,9.58
2022-09-21T21:31:18.209Z,9.53
2022-09-21T21:33:27.209Z,9.49
2022-09-21T21:35:33.321Z,9.48
2022-09-21T21:37:39.751Z,9.43
2022-09-21T21:39:46.391Z,9.54
2022-09-21T21:41:52.804Z,9.53
2022-09-21T21:43:59.277Z,9.52
2022-09-21T21:46:05.885Z,9.5
2022-09-21T21:48:12.523Z,9.48
2022-09-21T21:50:18.873Z,9.49
2022-09-21T21:52:25.224Z,9.51
2022-09-21T21:54:31.776Z,9.5
2022-09-21T21:56:41.408Z,9.36
2022-09-21T21:58:47.599Z,9.33
2022-09-21T22:00:57.251Z,9.32
2022-09-21T22:03:03.806Z,9.32
2022-09-21T22:05:10.159Z,9.29
2022-09-21T22:07:16.235Z,9.21
2022-09-21T22:09:22.734Z,9.19
2022-09-21T22:11:29.019Z,9.12
2022-09-21T22:13:35.268Z,9.08
2022-09-21T22:15:42.535Z,9.13
2022-09-21T22:17:48.252Z,8.99
2022-09-21T22:19:54.354Z,8.88
2022-09-21T22:22:00.647Z,8.86
2022-09-21T22:24:06.945Z,8.78
2022-09-21T22:26:12.137Z,8.81
2022-09-21T22:28:17.453Z,8.78
2022-09-21T22:30:23.177Z,8.77
2022-09-21T22:32:28.553Z,8.76
2022-09-21T22:34:35.355Z,8.9
2022-09-21T22:36:41.535Z,8.79
2022-09-21T22:38:47.563Z,8.82
2022-09-21T22:40:53.036Z,8.85
2022-09-21T22:42:58.480Z,8.9
2022-09-21T22:45:04.565Z,8.89
2022-09-21T22:47:10.065Z,8.9
2022-09-21T22:49:15.351Z,8.96
2022-09-21T22:51:20.738Z,8.99
2022-09-21T22:53:26.394Z,8.99
2022-09-21T22:55:31.761Z,9.02
2022-09-21T22:57:37.624Z,9.02
2022-09-21T22:59:44.670Z,9.03
2022-09-21T23:01:50.243Z,9
2022-09-21T23:03:55.351Z,9.02
2022-09-21T23:06:01.205Z,9.05
2022-09-21T23:08:06.870Z,9.03
2022-09-21T23:10:12.135Z,9.05
2022-09-21T23:12:17.234Z,9.06
2022-09-21T23:14:22.702Z,9.15
2022-09-21T23:16:28.744Z,9.03
2022-09-21T23:18:34.506Z,9.03
2022-09-21T23:20:39.996Z,9.11
2022-09-21T23:22:45.379Z,9.08
2022-09-21T23:24:52.930Z,9.13
2022-09-21T23:26:58.269Z,9.13
2022-09-21T23:29:03.795Z,9.13
2022-09-21T23:31:12.099Z,9.16
2022-09-21T23:33:17.960Z,9.13
2022-09-21T23:35:23.499Z,9.15
2022-09-21T23:37:29.039Z,9.16
2022-09-21T23:39:34.422Z,9.16
2022-09-21T23:41:40.120Z,9.12
2022-09-21T23:43:46.119Z,9.13
2022-09-21T23:45:51.608Z,9.12
2022-09-21T23:47:57.071Z,9.12
2022-09-21T23:50:02.411Z,9.13
2022-09-21T23:52:08.072Z,9.14
2022-09-21T23:54:13.589Z,9.13
2022-09-21T23:56:18.997Z,9.11
2022-09-21T23:58:24.347Z,9.1
